Time;durP1;ratioP1;P1;durP2;ratioP2;P2;SDS_P1;SDS_P2;PMS_P1;PMS_P2;Temp;Humidity;BMP_temperature;BMP_pressure;BME280_temperature;BME280_humidity;BME280_pressure;Samples;Min_cycle;Max_cycle;Signal;HPM_P1;HPM_P2
2023/08/23 00:01:48;;;;;;;3.57;1.50;;;;;;;17.25;100.00;101373.38;5073771;28;21004;-66
2023/08/23 00:04:15;;;;;;;3.60;1.40;;;;;;;17.27;100.00;101374.69;5073751;28;20503;-66
2023/08/23 00:06:42;;;;;;;2.60;1.13;;;;;;;17.26;100.00;101380.47;5073342;28;21031;-66
2023/08/23 00:09:09;;;;;;;2.43;0.80;;;;;;;17.21;100.00;101377.91;5074118;28;20444;-66
2023/08/23 00:11:35;;;;;;;4.70;1.20;;;;;;;17.12;100.00;101372.44;5074086;28;20956;-66
2023/08/23 00:14:02;;;;;;;3.47;1.03;;;;;;;17.15;100.00;101371.81;5073927;28;20436;-66
2023/08/23 00:16:29;;;;;;;3.23;0.97;;;;;;;17.18;100.00;101382.13;5074002;28;20559;-67
2023/08/23 00:18:56;;;;;;;3.23;1.40;;;;;;;17.17;100.00;101374.22;5073645;28;20445;-67
2023/08/23 00:21:24;;;;;;;2.60;1.17;;;;;;;17.11;100.00;101377.13;5073823;28;20576;-67
2023/08/23 00:23:51;;;;;;;3.17;1.23;;;;;;;17.11;100.00;101377.13;5073631;28;20444;-67
2023/08/23 00:26:17;;;;;;;4.40;0.90;;;;;;;17.08;100.00;101376.97;5073748;28;20548;-67
2023/08/23 00:28:44;;;;;;;5.80;1.27;;;;;;;17.02;100.00;101372.81;5073211;28;20448;-67
2023/08/23 00:31:11;;;;;;;2.67;1.07;;;;;;;17.05;100.00;101374.91;5073926;28;20520;-69
2023/08/23 00:33:37;;;;;;;3.77;1.17;;;;;;;16.98;100.00;101372.66;5074003;28;20440;-69
2023/08/23 00:36:04;;;;;;;3.10;1.17;;;;;;;16.98;100.00;101375.38;5073763;28;20867;-68
2023/08/23 00:38:32;;;;;;;2.50;0.87;;;;;;;16.94;100.00;101379.09;5074128;28;20630;-68
2023/08/23 00:40:59;;;;;;;3.40;1.40;;;;;;;16.91;100.00;101372.34;5073338;28;20480;-68
2023/08/23 00:43:25;;;;;;;2.80;1.00;;;;;;;16.95;100.00;101375.22;5073755;28;20472;-68
2023/08/23 00:45:52;;;;;;;3.33;1.17;;;;;;;16.98;100.00;101371.84;5072983;28;20461;-68
2023/08/23 00:48:19;;;;;;;3.23;1.23;;;;;;;16.96;100.00;101371.38;5073625;28;20523;-68
2023/08/23 00:50:46;;;;;;;2.93;1.20;;;;;;;16.90;100.00;101378.94;5073279;28;20444;-68
2023/08/23 00:53:14;;;;;;;4.63;1.53;;;;;;;16.87;100.00;101376.84;5073241;28;20448;-68
2023/08/23 00:55:42;;;;;;;2.97;1.40;;;;;;;16.84;100.00;101380.22;5072785;28;20457;-68
2023/08/23 00:58:10;;;;;;;3.17;1.30;;;;;;;16.88;100.00;101384.75;5073602;28;20531;-68
2023/08/23 01:00:36;;;;;;;2.53;1.13;;;;;;;16.86;100.00;101381.50;5073145;28;20481;-68
2023/08/23 01:03:03;;;;;;;2.40;0.90;;;;;;;16.83;100.00;101384.91;5075753;28;20487;-68
2023/08/23 01:05:41;;;;;;;3.80;1.50;;;;;;;16.82;100.00;101388.78;5077435;28;20549;-68
2023/08/23 01:08:32;;;;;;;2.20;0.60;;;;;;;16.80;100.00;101387.47;5077037;28;20457;-68
2023/08/23 01:11:09;;;;;;;2.70;1.00;;;;;;;16.74;100.00;101384.13;5077075;28;20943;-68
2023/08/23 01:13:41;;;;;;;2.80;1.30;;;;;;;16.73;100.00;101382.47;5076991;28;20428;-68
2023/08/23 01:16:11;;;;;;;2.30;0.77;;;;;;;16.73;100.00;101377.00;5076745;28;20556;-68
2023/08/23 01:18:39;;;;;;;5.10;1.07;;;;;;;16.79;100.00;101377.66;5077267;28;20443;-68
2023/08/23 01:21:07;;;;;;;3.90;1.37;;;;;;;16.73;100.00;101382.47;5076720;28;20508;-68
2023/08/23 01:23:37;;;;;;;3.73;1.20;;;;;;;16.72;100.00;101378.13;5076919;28;20868;-68
2023/08/23 01:26:03;;;;;;;3.00;0.87;;;;;;;16.67;100.00;101378.28;5076367;28;20471;-68
2023/08/23 01:28:30;;;;;;;3.17;1.17;;;;;;;16.61;100.00;101379.59;5076664;28;20523;-68
2023/08/23 01:31:00;;;;;;;3.73;1.30;;;;;;;16.63;100.00;101377.31;5076381;28;20469;-68
2023/08/23 01:33:34;;;;;;;6.23;2.00;;;;;;;16.61;100.00;101376.84;5076626;28;20421;-68
2023/08/23 01:36:07;;;;;;;2.87;1.13;;;;;;;16.51;100.00;101372.50;5076880;28;20499;-68
2023/08/23 01:38:38;;;;;;;2.67;1.03;;;;;;;16.48;100.00;101369.59;5076931;28;20453;-68
2023/08/23 01:41:04;;;;;;;2.67;0.93;;;;;;;16.50;100.00;101375.53;5076125;28;20898;-68
2023/08/23 01:43:31;;;;;;;5.33;1.20;;;;;;;16.50;100.00;101370.88;5076664;28;20438;-68
2023/08/23 01:45:58;;;;;;;2.90;0.87;;;;;;;16.49;100.00;101377.47;5076002;28;20968;-68
2023/08/23 01:48:24;;;;;;;3.63;1.30;;;;;;;16.43;100.00;101375.25;5076710;28;20444;-68
2023/08/23 01:50:52;;;;;;;2.80;1.40;;;;;;;16.44;100.00;101376.84;5076273;28;20901;-68
2023/08/23 01:53:19;;;;;;;3.03;1.33;;;;;;;16.43;100.00;101373.31;5076252;28;20437;-68
2023/08/23 01:55:47;;;;;;;3.43;1.20;;;;;;;16.43;100.00;101377.97;5076140;28;20479;-68
2023/08/23 01:58:13;;;;;;;4.00;0.90;;;;;;;16.37;100.00;101374.56;5076197;28;20524;-68
2023/08/23 02:00:46;;;;;;;3.30;1.37;;;;;;;16.32;100.00;101372.78;5076032;28;20534;-68
2023/08/23 02:03:12;;;;;;;3.07;1.27;;;;;;;16.35;100.00;101374.91;5076176;28;20452;-68
2023/08/23 02:05:39;;;;;;;4.40;1.47;;;;;;;16.36;100.00;101368.28;5076123;28;20544;-68
2023/08/23 02:08:06;;;;;;;2.90;1.33;;;;;;;16.35;100.00;101365.91;5076072;28;20433;-68
2023/08/23 02:10:32;;;;;;;2.40;1.00;;;;;;;16.32;100.00;101363.78;5076297;28;20516;-68
2023/08/23 02:13:04;;;;;;;2.90;1.00;;;;;;;16.34;100.00;101367.81;5075647;28;20438;-68
2023/08/23 02:15:30;;;;;;;2.47;1.00;;;;;;;16.30;100.00;101369.59;5113315;22;20487;-66
2023/08/23 02:17:57;;;;;;;2.60;0.87;;;;;;;16.34;100.00;101369.75;5116837;28;20444;-66
2023/08/23 02:20:23;;;;;;;3.53;1.57;;;;;;;16.35;100.00;101365.91;5116351;28;21026;-67
2023/08/23 02:22:50;;;;;;;2.50;0.97;;;;;;;16.28;100.00;101366.34;5117606;28;20514;-67
2023/08/23 02:25:17;;;;;;;2.67;1.40;;;;;;;16.31;100.00;101371.19;5116560;28;20491;-67
2023/08/23 02:27:43;;;;;;;2.67;0.90;;;;;;;16.26;100.00;101368.63;5116691;28;20931;-67
2023/08/23 02:30:13;;;;;;;3.10;1.60;;;;;;;16.19;100.00;101362.81;5116799;28;20442;-67
2023/08/23 02:32:40;;;;;;;3.50;1.00;;;;;;;16.19;100.00;101362.81;5116741;28;20468;-67
2023/08/23 02:35:07;;;;;;;3.27;1.30;;;;;;;16.21;100.00;101360.59;5116304;28;20463;-67
2023/08/23 02:37:33;;;;;;;2.93;1.00;;;;;;;16.13;100.00;101355.91;5116683;27;20505;-67
2023/08/23 02:40:00;;;;;;;2.77;1.30;;;;;;;16.12;100.00;101349.63;5116028;28;20535;-67
2023/08/23 02:42:27;;;;;;;2.77;1.00;;;;;;;16.18;100.00;101350.28;5116168;28;20487;-67
2023/08/23 02:44:53;;;;;;;3.30;1.50;;;;;;;16.18;100.00;101354.94;5116203;28;20777;-67
2023/08/23 02:47:21;;;;;;;4.17;1.60;;;;;;;16.15;100.00;101348.16;5116342;28;20435;-67
2023/08/23 02:49:48;;;;;;;2.50;0.90;;;;;;;16.14;100.00;101360.25;5116467;28;20439;-67
2023/08/23 02:52:14;;;;;;;2.70;1.07;;;;;;;16.07;100.00;101355.25;5115684;28;20518;-67
2023/08/23 02:54:41;;;;;;;2.47;1.00;;;;;;;16.08;100.00;101351.41;5116265;28;20475;-67
2023/08/23 02:57:07;;;;;;;2.60;1.00;;;;;;;16.03;100.00;101353.47;5115879;28;20797;-67
2023/08/23 02:59:34;;;;;;;3.33;1.50;;;;;;;16.00;100.00;101359.56;5115981;28;20436;-66
2023/08/23 03:02:01;;;;;;;3.13;1.20;;;;;;;16.01;100.00;101356.50;5115509;28;20570;-67
2023/08/23 03:04:29;;;;;;;3.43;1.10;;;;;;;15.92;100.00;101352.97;5115630;28;20438;-67
2023/08/23 03:06:56;;;;;;;2.47;0.97;;;;;;;15.88;100.00;101360.97;5115725;28;20830;-66
2023/08/23 03:09:23;;;;;;;3.80;1.47;;;;;;;15.87;100.00;101358.56;5115636;28;20471;-66
2023/08/23 03:11:49;;;;;;;2.77;1.20;;;;;;;15.91;100.00;101353.28;5115779;28;20431;-67
2023/08/23 03:14:16;;;;;;;2.40;0.80;;;;;;;15.92;100.00;101349.44;5115375;28;20475;-67
2023/08/23 03:16:42;;;;;;;3.17;1.13;;;;;;;15.90;100.00;101357.94;5115309;28;20452;-67
2023/08/23 03:19:09;;;;;;;3.60;1.30;;;;;;;15.89;100.00;101356.31;5115679;28;20431;-73
2023/08/23 03:21:37;;;;;;;2.73;0.93;;;;;;;15.86;100.00;101348.78;5115500;28;20855;-68
2023/08/23 03:24:04;;;;;;;3.00;1.27;;;;;;;15.82;100.00;101350.53;5115420;28;20522;-65
2023/08/23 03:26:30;;;;;;;3.40;1.30;;;;;;;15.80;100.00;101356.28;5115103;28;20559;-65
2023/08/23 03:28:57;;;;;;;2.77;1.20;;;;;;;15.78;100.00;101358.56;5115239;28;20532;-65
2023/08/23 03:31:24;;;;;;;2.60;0.87;;;;;;;15.86;100.00;101351.50;5115174;28;20467;-65
2023/08/23 03:33:50;;;;;;;2.40;1.20;;;;;;;15.84;100.00;101351.00;5115293;28;20439;-65
2023/08/23 03:36:17;;;;;;;2.37;0.90;;;;;;;15.80;100.00;101355.50;5115108;28;21008;-65
2023/08/23 03:38:45;;;;;;;2.90;1.30;;;;;;;15.80;100.00;101361.75;5115113;28;20527;-65
2023/08/23 03:41:15;;;;;;;2.87;1.20;;;;;;;15.80;100.00;101363.69;5114950;28;20558;-65
2023/08/23 03:43:41;;;;;;;2.43;0.87;;;;;;;15.79;100.00;101360.16;5115025;28;20439;-65
2023/08/23 03:46:08;;;;;;;2.90;1.00;;;;;;;15.76;100.00;101362.72;5114870;28;20546;-65
2023/08/23 03:48:34;;;;;;;3.17;1.37;;;;;;;15.70;100.00;101372.97;5115259;27;20842;-65
2023/08/23 03:51:01;;;;;;;2.83;1.30;;;;;;;15.67;100.00;101364.59;5115161;28;20521;-65
2023/08/23 03:53:28;;;;;;;3.10;0.93;;;;;;;15.64;100.00;101371.53;5114983;28;20446;-65
2023/08/23 03:55:56;;;;;;;2.50;1.10;;;;;;;15.68;100.00;101377.97;5115089;28;20460;-64
2023/08/23 03:58:22;;;;;;;2.30;0.80;;;;;;;15.71;100.00;101369.13;5114781;28;20435;-65
2023/08/23 04:00:50;;;;;;;2.60;1.20;;;;;;;15.63;100.00;101362.50;5114764;28;20641;-65
2023/08/23 04:03:16;;;;;;;2.53;1.13;;;;;;;15.68;100.00;101358.06;5114690;28;20431;-65
2023/08/23 04:05:43;;;;;;;2.70;0.77;;;;;;;15.72;100.00;101361.75;5114709;28;20487;-65
2023/08/23 04:08:10;;;;;;;3.60;1.40;;;;;;;15.68;100.00;101361.59;5114878;28;20526;-65
2023/08/23 04:10:37;;;;;;;3.10;1.40;;;;;;;15.66;100.00;101358.34;5114587;28;20443;-65
2023/08/23 04:13:05;;;;;;;2.87;1.00;;;;;;;15.64;100.00;101361.41;5114841;28;20939;-65
2023/08/23 04:15:31;;;;;;;2.50;0.93;;;;;;;15.70;100.00;101369.44;5114013;28;20557;-64
2023/08/23 04:17:58;;;;;;;2.33;0.73;;;;;;;15.62;100.00;101365.53;5114658;28;20758;-65
2023/08/23 04:20:24;;;;;;;3.43;1.13;;;;;;;15.61;100.00;101362.00;5114705;28;20442;-65
2023/08/23 04:22:51;;;;;;;2.50;1.10;;;;;;;15.60;100.00;101362.31;5114307;28;20483;-64
2023/08/23 04:25:18;;;;;;;2.50;1.10;;;;;;;15.61;100.00;101366.66;5114813;28;20544;-64
2023/08/23 04:27:44;;;;;;;3.00;1.10;;;;;;;15.60;100.00;101362.31;5114288;28;20806;-64
2023/08/23 04:30:13;;;;;;;2.70;1.00;;;;;;;15.66;100.00;101361.06;5114076;28;21006;-65
2023/08/23 04:32:39;;;;;;;2.53;1.17;;;;;;;15.64;100.00;101364.13;5114322;28;20972;-65
2023/08/23 04:35:07;;;;;;;4.03;1.60;;;;;;;15.61;100.00;101362.00;5114277;28;20542;-66
2023/08/23 04:37:33;;;;;;;2.30;0.80;;;;;;;15.60;100.00;101365.06;5114052;28;20518;-66
2023/08/23 04:40:00;;;;;;;2.40;0.80;;;;;;;15.53;100.00;101364.69;5114216;28;20450;-66
2023/08/23 04:42:31;;;;;;;2.40;0.87;;;;;;;15.52;100.00;101374.81;5114284;28;20902;-66
2023/08/23 04:44:59;;;;;;;3.00;1.20;;;;;;;15.51;100.00;101372.41;5114461;28;20494;-66
2023/08/23 04:47:27;;;;;;;2.63;1.23;;;;;;;15.57;100.00;101374.66;5114225;28;20441;-66
2023/08/23 04:49:54;;;;;;;2.70;1.10;;;;;;;15.57;100.00;101368.41;5114112;28;20497;-66
2023/08/23 04:52:21;;;;;;;3.57;1.47;;;;;;;15.59;100.00;101366.97;5114246;28;20436;-66
2023/08/23 04:54:48;;;;;;;2.90;1.47;;;;;;;15.61;100.00;101369.38;5113699;28;20528;-66
2023/08/23 04:57:14;;;;;;;3.80;1.83;;;;;;;15.65;100.00;101370.41;5113697;28;20522;-66
2023/08/23 04:59:41;;;;;;;3.00;1.20;;;;;;;15.68;100.00;101369.78;5113915;28;20535;-66
2023/08/23 05:02:07;;;;;;;3.40;1.17;;;;;;;15.72;100.00;101370.75;5113950;28;20485;-66
2023/08/23 05:04:36;;;;;;;2.73;0.97;;;;;;;15.80;100.00;101366.41;5113920;28;20446;-66
2023/08/23 05:07:03;;;;;;;3.07;1.13;;;;;;;15.89;100.00;101380.91;5113792;28;20466;-66
2023/08/23 05:09:30;;;;;;;2.80;1.40;;;;;;;15.96;100.00;101364.88;5113944;28;20522;-66
2023/08/23 05:11:57;;;;;;;3.10;1.50;;;;;;;16.02;100.00;101365.50;5114187;28;20448;-66
2023/08/23 05:14:23;;;;;;;3.27;1.70;;;;;;;16.05;100.00;101362.16;5113664;28;20441;-65
2023/08/23 05:16:50;;;;;;;2.83;1.20;;;;;;;16.14;100.00;101360.25;5114097;28;20467;-65
2023/08/23 05:19:17;;;;;;;2.70;1.20;;;;;;;16.17;100.00;101365.06;5114122;28;20526;-65
2023/08/23 05:21:45;;;;;;;3.27;1.10;;;;;;;16.21;100.00;101366.03;5114015;28;20566;-65
2023/08/23 05:24:11;;;;;;;2.23;0.73;;;;;;;16.30;100.00;101368.78;5114314;28;20453;-65
2023/08/23 05:26:38;;;;;;;5.37;1.50;;;;;;;16.35;100.00;101366.69;5114157;28;20456;-71
2023/08/23 05:29:04;;;;;;;2.77;1.27;;;;;;;16.47;100.00;101373.44;5113697;28;20919;-72
2023/08/23 05:31:31;;;;;;;2.90;1.00;;;;;;;16.54;100.00;101368.31;5113824;28;20518;-67
2023/08/23 05:33:58;;;;;;;2.83;1.30;;;;;;;16.61;100.00;101372.19;5114163;28;20538;-67
2023/08/23 05:36:24;;;;;;;3.03;1.40;;;;;;;16.70;100.00;101372.16;5113964;28;20546;-67
2023/08/23 05:38:52;;;;;;;3.47;1.00;;;;;;;16.82;100.00;101368.78;5113728;28;20431;-67
2023/08/23 05:41:19;;;;;;;2.73;1.30;;;;;;;16.93;100.00;101374.75;5113404;28;20443;-71
2023/08/23 05:43:45;;;;;;;4.03;2.00;;;;;;;17.06;100.00;101379.25;5113632;28;20578;-73
2023/08/23 05:46:12;;;;;;;3.20;1.50;;;;;;;17.20;100.00;101379.84;5113986;28;20487;-70
2023/08/23 05:48:39;;;;;;;4.27;1.67;;;;;;;17.33;100.00;101378.84;5114045;28;20995;-68
2023/08/23 05:51:06;;;;;;;4.20;1.50;;;;;;;17.42;100.00;101375.28;5117532;28;20564;-67
2023/08/23 05:53:33;;;;;;;3.23;1.50;;;;;;;17.53;100.00;101376.50;5117286;28;20500;-68
2023/08/23 05:56:01;;;;;;;3.63;1.90;;;;;;;17.64;100.00;101380.50;5116823;28;20460;-68
2023/08/23 05:58:27;;;;;;;2.97;1.23;;;;;;;17.77;100.00;101375.97;5117204;28;20444;-67
2023/08/23 06:00:56;;;;;;;2.90;1.20;;;;;;;17.88;100.00;101377.16;5117141;28;20485;-67
2023/08/23 06:03:22;;;;;;;2.90;1.37;;;;;;;17.95;100.00;101374.72;5117334;28;20479;-67
2023/08/23 06:05:54;;;;;;;3.40;1.17;;;;;;;18.01;100.00;101376.13;5116993;28;20452;-67
2023/08/23 06:08:20;;;;;;;3.20;1.60;;;;;;;18.07;100.00;101379.50;5116940;28;20428;-67
2023/08/23 06:10:47;;;;;;;3.83;1.90;;;;;;;18.16;100.00;101374.75;5116877;28;20527;-67
2023/08/23 06:13:15;;;;;;;3.53;1.73;;;;;;;18.25;100.00;101374.69;5116808;28;20432;-67
2023/08/23 06:15:42;;;;;;;3.47;2.03;;;;;;;18.34;100.00;101376.25;5116315;28;21042;-67
2023/08/23 06:18:08;;;;;;;2.77;1.03;;;;;;;18.42;100.00;101369.09;5117053;28;20515;-68
2023/08/23 06:20:35;;;;;;;3.17;1.40;;;;;;;18.50;100.00;101373.69;5117018;28;20439;-68
2023/08/23 06:23:02;;;;;;;3.30;1.43;;;;;;;18.57;100.00;101382.19;5116753;28;20483;-68
2023/08/23 06:25:29;;;;;;;3.10;1.57;;;;;;;18.65;100.00;101388.75;5116465;28;20451;-68
2023/08/23 06:27:55;;;;;;;3.20;1.47;;;;;;;18.72;100.00;101389.03;5117091;28;20526;-68
2023/08/23 06:30:23;;;;;;;2.90;1.30;;;;;;;18.82;100.00;101388.63;5116414;28;20923;-68
2023/08/23 06:32:50;;;;;;;4.03;1.70;;;;;;;18.92;100.00;101386.59;5116720;28;20450;-68
2023/08/23 06:35:18;;;;;;;3.80;1.63;;;;;;;18.99;99.79;101392.34;5116360;28;20538;-68
2023/08/23 06:37:45;;;;;;;3.73;1.30;;;;;;;19.05;99.79;101389.06;5116222;28;21030;-68
2023/08/23 06:40:13;;;;;;;4.63;1.93;;;;;;;19.14;99.08;101386.22;5116769;28;20443;-68
2023/08/23 06:42:39;;;;;;;3.10;1.40;;;;;;;19.23;98.22;101395.16;5116258;28;20514;-68
2023/08/23 06:45:08;;;;;;;3.87;1.80;;;;;;;19.32;97.27;101403.31;5115884;28;20967;-68
2023/08/23 06:47:37;;;;;;;2.87;1.20;;;;;;;19.39;95.89;101400.81;5116260;28;20919;-68
2023/08/23 06:50:04;;;;;;;3.10;1.40;;;;;;;19.49;95.84;101394.88;5116514;28;20518;-68
2023/08/23 06:52:30;;;;;;;3.10;1.27;;;;;;;19.58;96.07;101387.31;5116111;28;20465;-68
2023/08/23 06:54:57;;;;;;;2.87;1.43;;;;;;;19.64;96.80;101388.72;5115870;28;20530;-68
2023/08/23 06:57:28;;;;;;;2.70;1.10;;;;;;;19.79;95.09;101394.66;5115642;28;20526;-68
2023/08/23 06:59:55;;;;;;;3.87;1.67;;;;;;;19.90;93.14;101393.88;5115829;28;20460;-68
2023/08/23 07:02:22;;;;;;;2.97;1.37;;;;;;;20.00;92.35;101397.31;5115799;28;20490;-68
2023/08/23 07:04:51;;;;;;;3.77;1.43;;;;;;;20.10;92.06;101389.41;5115875;28;20508;-68
2023/08/23 07:07:17;;;;;;;2.90;1.33;;;;;;;20.19;91.07;101389.28;5115770;28;20444;-68
2023/08/23 07:09:44;;;;;;;3.40;1.20;;;;;;;20.24;91.80;101394.53;5116169;28;20436;-68
2023/08/23 07:12:10;;;;;;;3.10;1.57;;;;;;;20.24;91.45;101391.78;5115277;28;20896;-68
2023/08/23 07:14:37;;;;;;;3.60;1.20;;;;;;;20.36;90.90;101397.28;5115561;28;20526;-68
2023/08/23 07:17:04;;;;;;;3.27;1.57;;;;;;;20.44;90.15;101398.25;5115575;28;21027;-72
2023/08/23 07:19:31;;;;;;;2.87;0.90;;;;;;;20.56;90.26;101401.03;5115501;28;20479;-71
2023/08/23 07:21:59;;;;;;;2.87;1.17;;;;;;;20.63;89.36;101389.44;5115148;28;20526;-68
2023/08/23 07:24:25;;;;;;;2.70;1.30;;;;;;;20.75;88.82;101399.56;5115404;28;20546;-68
2023/08/23 07:26:54;;;;;;;3.00;1.43;;;;;;;20.83;89.55;101404.94;5114958;28;21033;-68
2023/08/23 07:29:20;;;;;;;3.90;1.90;;;;;;;20.90;86.88;101405.16;5115237;28;20447;-68
2023/08/23 07:31:47;;;;;;;3.03;1.50;;;;;;;20.95;86.38;101400.53;5115706;28;20530;-68
2023/08/23 07:34:14;;;;;;;3.30;1.47;;;;;;;20.92;86.38;101408.34;5115223;28;20439;-68
2023/08/23 07:36:40;;;;;;;3.13;1.20;;;;;;;21.04;86.03;101409.44;5115134;28;20546;-68
2023/08/23 07:39:08;;;;;;;2.80;1.00;;;;;;;21.16;85.35;101412.94;5115193;27;20444;-68
2023/08/23 07:41:35;;;;;;;2.83;1.20;;;;;;;21.23;85.39;101415.06;5115193;28;20530;-68
2023/08/23 07:44:01;;;;;;;2.43;1.30;;;;;;;21.24;85.86;101405.66;5115410;28;20489;-68
2023/08/23 07:46:28;;;;;;;2.80;1.10;;;;;;;21.37;85.22;101409.97;5115192;28;20943;-68
2023/08/23 07:48:55;;;;;;;3.20;1.30;;;;;;;21.45;84.12;101412.91;5115361;28;20534;-68
2023/08/23 07:51:21;;;;;;;2.50;0.93;;;;;;;21.56;84.00;101411.22;5114956;28;20869;-68
2023/08/23 07:53:48;;;;;;;2.47;1.03;;;;;;;21.70;83.27;101417.09;5114840;28;20849;-68
2023/08/23 07:56:17;;;;;;;2.93;1.10;;;;;;;21.79;82.38;101422.44;5114833;28;20918;-67
2023/08/23 07:58:44;;;;;;;2.40;0.87;;;;;;;21.86;81.40;101426.16;5114979;28;20467;-67
2023/08/23 08:01:10;;;;;;;3.00;1.50;;;;;;;21.94;81.58;101420.81;5114792;28;20518;-67
2023/08/23 08:03:38;;;;;;;2.93;1.37;;;;;;;21.89;80.92;101421.88;5114500;28;20959;-67
2023/08/23 08:06:05;;;;;;;2.77;1.27;;;;;;;22.00;82.44;101427.66;5114536;28;20830;-67
2023/08/23 08:08:31;;;;;;;3.20;1.40;;;;;;;22.12;83.14;101420.09;5114725;28;20439;-67
2023/08/23 08:10:59;;;;;;;2.50;1.13;;;;;;;22.26;82.55;101405.81;5114485;28;20901;-67
2023/08/23 08:13:27;;;;;;;2.50;1.00;;;;;;;22.39;82.14;101412.00;5114330;28;20522;-66
2023/08/23 08:15:54;;;;;;;3.97;1.57;;;;;;;22.46;81.98;101408.63;5114485;28;20476;-67
2023/08/23 08:18:21;;;;;;;2.47;1.10;;;;;;;22.55;80.96;101420.25;5114604;28;20439;-67
2023/08/23 08:20:49;;;;;;;2.70;1.30;;;;;;;22.60;80.49;101425.47;5114940;28;20439;-67
2023/08/23 08:23:15;;;;;;;3.40;1.07;;;;;;;22.71;80.42;101422.94;5114429;28;20479;-68
2023/08/23 08:25:42;;;;;;;2.80;1.33;;;;;;;22.71;80.54;101418.22;5114298;28;21030;-68
2023/08/23 08:28:10;;;;;;;4.10;1.80;;;;;;;22.78;80.75;101421.13;5114451;28;20439;-67
2023/08/23 08:30:38;;;;;;;2.73;1.10;;;;;;;22.92;78.31;101426.97;5114560;28;20439;-67
2023/08/23 08:33:05;;;;;;;3.50;1.20;;;;;;;22.99;79.94;101431.84;5113918;28;20518;-67
2023/08/23 08:35:32;;;;;;;2.40;1.03;;;;;;;23.11;80.29;101433.66;5114642;28;20467;-67
2023/08/23 08:37:58;;;;;;;2.80;1.30;;;;;;;23.20;78.34;101436.16;5114236;28;20991;-67
2023/08/23 08:40:25;;;;;;;5.07;1.73;;;;;;;23.30;76.48;101436.38;5114246;28;20439;-67
2023/08/23 08:42:53;;;;;;;2.70;1.30;;;;;;;23.31;77.09;101431.66;5114295;28;20527;-67
2023/08/23 08:45:20;;;;;;;3.20;1.30;;;;;;;23.34;77.02;101434.47;5114205;28;20460;-67
2023/08/23 08:47:49;;;;;;;2.87;1.27;;;;;;;23.31;75.79;101432.44;5113926;28;20522;-67
2023/08/23 08:50:15;;;;;;;3.27;1.37;;;;;;;23.40;76.29;101435.75;5114107;28;20443;-67
2023/08/23 08:52:45;;;;;;;2.63;1.10;;;;;;;23.45;77.51;101433.88;5114427;28;20911;-67
2023/08/23 08:55:12;;;;;;;3.27;1.50;;;;;;;23.58;75.39;101438.03;5114243;28;20463;-67
2023/08/23 08:57:39;;;;;;;2.40;1.00;;;;;;;23.65;75.01;101430.69;5114506;28;20431;-66
2023/08/23 09:00:07;;;;;;;3.23;1.80;;;;;;;23.73;74.50;101437.16;5114306;28;20527;-66
2023/08/23 09:02:35;;;;;;;2.90;1.20;;;;;;;23.85;74.82;101433.38;5113815;28;20927;-66
2023/08/23 09:05:05;;;;;;;2.50;1.10;;;;;;;23.98;72.61;101434.78;5114039;28;20459;-66
2023/08/23 09:07:32;;;;;;;2.80;1.40;;;;;;;24.18;72.37;101441.03;5114717;28;20522;-66
2023/08/23 09:09:59;;;;;;;3.47;1.70;;;;;;;24.25;73.50;101438.34;5113784;28;20998;-66
2023/08/23 09:12:25;;;;;;;2.67;1.00;;;;;;;24.44;72.38;101439.41;5113981;28;20463;-67
2023/08/23 09:14:52;;;;;;;2.47;1.07;;;;;;;24.57;68.92;101435.25;5113740;28;20451;-66
2023/08/23 09:17:21;;;;;;;3.23;1.50;;;;;;;24.57;69.08;101438.84;5114197;28;20440;-66
2023/08/23 09:19:48;;;;;;;2.63;1.17;;;;;;;24.65;70.31;101443.25;5114103;28;20436;-69
2023/08/23 09:22:21;;;;;;;2.43;1.00;;;;;;;24.64;68.06;101449.19;5114074;28;20531;-70
2023/08/23 09:24:48;;;;;;;2.50;0.77;;;;;;;24.70;66.60;101449.66;5118285;28;20897;-71
2023/08/23 09:27:15;;;;;;;3.13;1.00;;;;;;;24.70;67.38;101442.13;5116597;28;20974;-70
2023/08/23 09:29:42;;;;;;;2.20;0.80;;;;;;;24.63;66.41;101450.38;5117743;28;20943;-67
2023/08/23 09:32:09;;;;;;;2.67;0.93;;;;;;;24.73;66.18;101449.72;5118025;28;20496;-65
2023/08/23 09:34:35;;;;;;;2.80;1.10;;;;;;;24.83;67.05;101451.81;5118393;28;20431;-65
2023/08/23 09:37:06;;;;;;;2.23;0.60;;;;;;;24.89;62.63;101444.75;5117653;28;20467;-66
2023/08/23 09:39:34;;;;;;;2.47;0.70;;;;;;;25.03;62.41;101451.66;5117842;27;20466;-66
2023/08/23 09:42:05;;;;;;;2.67;0.80;;;;;;;25.17;62.87;101451.84;5118072;28;20435;-66
2023/08/23 09:44:36;;;;;;;2.70;1.10;;;;;;;25.37;58.17;101447.69;5117456;28;20471;-66
2023/08/23 09:47:07;;;;;;;2.50;1.00;;;;;;;25.37;62.29;101433.81;5117407;27;20538;-66
2023/08/23 09:49:34;;;;;;;2.50;0.90;;;;;;;25.56;59.82;101448.66;5117276;28;20514;-66
2023/08/23 09:52:02;;;;;;;3.10;0.80;;;;;;;25.75;58.65;101442.06;5117402;28;20427;-66
2023/08/23 09:54:38;;;;;;;2.73;1.00;;;;;;;25.81;58.63;101438.59;5117278;28;20514;-67
2023/08/23 09:57:06;;;;;;;3.60;0.90;;;;;;;25.79;61.49;101440.16;5117285;28;20879;-66
2023/08/23 09:59:34;;;;;;;2.40;0.83;;;;;;;25.83;57.16;101443.75;5117204;28;20471;-67
2023/08/23 10:02:03;;;;;;;2.50;0.90;;;;;;;25.84;56.89;101448.91;5116874;28;20467;-66
2023/08/23 10:04:30;;;;;;;2.20;0.50;;;;;;;25.85;57.49;101456.09;5116837;27;20518;-66
2023/08/23 10:06:58;;;;;;;2.20;0.80;;;;;;;25.88;57.47;101446.19;5117025;27;20820;-66
2023/08/23 10:09:26;;;;;;;2.43;0.80;;;;;;;25.83;55.04;101444.56;5117579;28;20482;-66
2023/08/23 10:11:54;;;;;;;2.33;0.87;;;;;;;25.76;56.10;101440.88;5116912;28;20832;-66
2023/08/23 10:14:21;;;;;;;2.40;1.00;;;;;;;25.72;54.50;101440.06;5116954;27;20432;-66
2023/08/23 10:16:49;;;;;;;2.70;1.00;;;;;;;25.70;57.37;101434.09;5116537;28;20844;-66
2023/08/23 10:19:16;;;;;;;2.90;1.07;;;;;;;25.76;56.40;101455.59;5116811;27;20431;-66
2023/08/23 10:21:42;;;;;;;2.80;0.67;;;;;;;25.69;55.66;101444.41;5117061;28;20479;-66
2023/08/23 10:24:09;;;;;;;3.93;1.10;;;;;;;25.66;58.20;101434.88;5116948;28;20574;-66
2023/08/23 10:26:47;;;;;;;2.03;0.67;;;;;;;25.74;55.47;101435.72;5117017;28;20494;-66
2023/08/23 10:29:15;;;;;;;2.63;1.00;;;;;;;25.76;55.12;101432.56;5116646;28;20489;-67
2023/08/23 10:31:53;;;;;;;2.60;1.10;;;;;;;25.96;56.80;101436.72;5116818;28;20505;-67
2023/08/23 10:34:24;;;;;;;2.20;0.80;;;;;;;26.12;57.10;101439.22;5116318;28;20412;-66
2023/08/23 10:36:52;;;;;;;2.10;0.73;;;;;;;26.09;55.91;101440.00;5116773;28;20810;-66
2023/08/23 10:39:21;;;;;;;2.33;1.00;;;;;;;26.08;55.60;101441.97;5117134;28;20436;-66
2023/08/23 10:41:51;;;;;;;3.17;0.70;;;;;;;26.06;57.97;101436.00;5116022;28;20883;-66
2023/08/23 10:44:20;;;;;;;2.20;0.80;;;;;;;26.01;56.18;101427.25;5116862;28;20467;-69
2023/08/23 10:46:50;;;;;;;2.00;0.60;;;;;;;25.88;57.28;101438.66;5116574;28;20538;-69
2023/08/23 10:49:20;;;;;;;2.57;1.10;;;;;;;25.75;58.07;101430.97;5116562;28;20501;-67
2023/08/23 10:51:47;;;;;;;4.33;1.27;;;;;;;25.54;59.59;101437.94;5116432;28;20776;-68
2023/08/23 10:54:14;;;;;;;3.43;0.90;;;;;;;25.40;59.31;101438.59;5116118;28;20918;-68
2023/08/23 10:56:41;;;;;;;2.90;1.03;;;;;;;25.47;60.72;101424.00;5116080;28;20491;-67
2023/08/23 10:59:09;;;;;;;4.23;0.70;;;;;;;25.53;60.07;101428.00;5115981;28;20436;-67
2023/08/23 11:01:38;;;;;;;2.47;0.93;;;;;;;25.86;56.46;101431.91;5116098;28;20519;-68
2023/08/23 11:04:06;;;;;;;2.97;1.10;;;;;;;26.10;57.42;101427.69;5115846;28;20836;-68
2023/08/23 11:06:33;;;;;;;3.13;0.90;;;;;;;26.24;56.87;101436.09;5116227;28;20459;-68
2023/08/23 11:09:00;;;;;;;2.30;1.00;;;;;;;26.33;54.28;101431.00;5115717;28;20471;-68
2023/08/23 11:11:29;;;;;;;2.23;0.80;;;;;;;26.48;53.99;101420.00;5115768;28;20509;-68
2023/08/23 11:13:56;;;;;;;3.03;0.90;;;;;;;26.66;54.94;101429.22;5115527;28;20467;-68
2023/08/23 11:16:24;;;;;;;2.83;0.97;;;;;;;26.96;53.45;101426.16;5115467;28;20540;-68
2023/08/23 11:18:53;;;;;;;2.27;0.60;;;;;;;27.36;50.44;101425.06;5116168;28;20445;-68
2023/08/23 11:21:19;;;;;;;2.10;0.60;;;;;;;27.91;49.82;101419.13;5115669;28;20518;-68
2023/08/23 11:23:47;;;;;;;2.60;0.87;;;;;;;29.03;50.60;101425.94;5115121;28;20982;-68